createdAt,value
2023-02-02T00:00:13.055Z,68.55
2023-02-02T00:02:43.298Z,68.64
2023-02-02T00:05:11.310Z,69.61
2023-02-02T00:07:39.577Z,69.45
2023-02-02T00:10:07.284Z,67.73
2023-02-02T00:12:46.407Z,67.76
2023-02-02T00:15:13.980Z,67.58
2023-02-02T00:17:50.661Z,67.67
2023-02-02T00:20:22.312Z,67.74
2023-02-02T00:22:50.045Z,68.60
2023-02-02T00:25:36.318Z,69.14
2023-02-02T00:28:04.511Z,69.05
2023-02-02T00:30:32.637Z,68.38
2023-02-02T00:33:00.104Z,67.63
2023-02-02T00:35:27.600Z,67.69
2023-02-02T00:37:56.920Z,67.61
2023-02-02T00:40:32.161Z,67.09
2023-02-02T00:43:02.335Z,68.33
2023-02-02T00:45:40.583Z,69.04
2023-02-02T00:48:11.243Z,68.69
2023-02-02T00:50:46.221Z,67.78
2023-02-02T00:53:43.178Z,66.77
2023-02-02T00:56:13.292Z,66.32
2023-02-02T00:58:43.011Z,66.62
2023-02-02T01:01:21.961Z,66.97
2023-02-02T01:03:52.040Z,67.82
2023-02-02T01:06:19.697Z,67.76
2023-02-02T01:08:46.992Z,66.62
2023-02-02T01:11:17.175Z,66.16
2023-02-02T01:13:47.868Z,66.32
2023-02-02T01:16:16.147Z,66.62
2023-02-02T01:18:44.132Z,66.80
2023-02-02T01:21:17.027Z,67.25
2023-02-02T01:23:46.956Z,67.63
2023-02-02T01:26:14.727Z,67.78
2023-02-02T01:28:51.575Z,66.25
2023-02-02T01:31:21.000Z,65.75
2023-02-02T01:33:51.497Z,65.68
2023-02-02T01:36:22.559Z,65.96
2023-02-02T01:38:53.588Z,66.51
2023-02-02T01:41:27.188Z,66.97
2023-02-02T01:43:59.897Z,67.76
2023-02-02T01:46:35.248Z,67.66
2023-02-02T01:49:09.429Z,66.16
2023-02-02T01:51:51.866Z,65.53
2023-02-02T01:54:47.056Z,65.41
2023-02-02T01:57:17.498Z,65.76
2023-02-02T02:00:04.657Z,65.87
2023-02-02T02:02:44.716Z,66.51
2023-02-02T02:05:16.199Z,67.21
2023-02-02T02:07:44.005Z,67.20
2023-02-02T02:10:11.917Z,65.74
2023-02-02T02:12:49.335Z,64.98
2023-02-02T02:15:38.688Z,64.72
2023-02-02T02:18:23.838Z,65.05
2023-02-02T02:21:52.432Z,65.36
2023-02-02T02:25:07.387Z,66.29
2023-02-02T02:28:12.353Z,66.84
2023-02-02T02:30:59.395Z,65.74
2023-02-02T02:34:02.036Z,64.31
2023-02-02T02:36:55.096Z,63.85
2023-02-02T02:39:27.551Z,64.63
2023-02-02T02:41:58.725Z,65.27
2023-02-02T02:44:28.742Z,65.60
2023-02-02T02:46:55.911Z,65.76
2023-02-02T02:49:45.249Z,66.86
2023-02-02T02:52:22.739Z,66.69
2023-02-02T02:54:56.221Z,65.12
2023-02-02T02:57:48.672Z,64.77
2023-02-02T03:00:53.623Z,64.83
2023-02-02T03:03:43.691Z,65.20
2023-02-02T03:06:30.535Z,65.40
2023-02-02T03:09:03.510Z,65.91
2023-02-02T03:11:34.399Z,67.05
2023-02-02T03:14:02.247Z,66.77
2023-02-02T03:16:35.003Z,65.49
2023-02-02T03:19:02.377Z,64.64
2023-02-02T03:21:41.593Z,64.87
2023-02-02T03:24:12.362Z,65.28
2023-02-02T03:26:52.077Z,66.02
2023-02-02T03:29:22.468Z,66.53
2023-02-02T03:31:49.869Z,67.04
2023-02-02T03:34:17.289Z,67.30
2023-02-02T03:36:44.410Z,66.33
2023-02-02T03:39:14.645Z,65.72
2023-02-02T03:41:47.807Z,65.69
2023-02-02T03:44:35.708Z,66.02
2023-02-02T03:47:05.757Z,66.49
2023-02-02T03:49:34.885Z,66.76
2023-02-02T03:52:15.534Z,67.20
2023-02-02T03:54:43.118Z,67.47
2023-02-02T03:57:27.997Z,66.29
2023-02-02T04:00:02.009Z,65.56
2023-02-02T04:02:39.804Z,65.23
2023-02-02T04:05:07.372Z,65.58
2023-02-02T04:07:34.755Z,66.13
2023-02-02T04:10:02.771Z,66.47
2023-02-02T04:12:30.242Z,67.49
2023-02-02T04:15:00.550Z,67.89
2023-02-02T04:17:28.030Z,66.84
2023-02-02T04:19:58.679Z,66.02
2023-02-02T04:23:02.388Z,65.57
2023-02-02T08:11:44.253Z,82.96
2023-02-02T08:15:06.685Z,76.37
2023-02-02T08:18:25.878Z,73.19
2023-02-02T08:22:14.024Z,72.66
2023-02-02T08:25:41.708Z,72.76
2023-02-02T08:28:58.724Z,72.08
2023-02-02T08:32:27.228Z,71.06
2023-02-02T08:36:04.301Z,69.76
2023-02-02T08:39:32.027Z,69.09
2023-02-02T08:42:35.792Z,70.32
2023-02-02T08:46:02.397Z,71.45
2023-02-02T08:49:54.200Z,70.92
2023-02-02T08:53:22.126Z,69.05
2023-02-02T08:56:21.346Z,68.85
2023-02-02T08:59:08.240Z,70.26
2023-02-02T09:01:47.490Z,70.31
2023-02-02T09:04:35.021Z,71.53
2023-02-02T09:07:02.426Z,70.14
2023-02-02T09:09:30.007Z,67.91
2023-02-02T09:12:05.882Z,67.51
2023-02-02T09:14:35.049Z,68.05
2023-02-02T09:17:02.462Z,68.39
2023-02-02T09:19:29.616Z,68.28
2023-02-02T09:21:59.584Z,69.02
2023-02-02T09:24:29.146Z,69.46
2023-02-02T09:26:56.395Z,69.23
2023-02-02T09:29:26.580Z,67.21
2023-02-02T09:31:56.621Z,66.85
2023-02-02T09:34:23.638Z,66.37
2023-02-02T09:36:50.879Z,66.89
2023-02-02T09:39:20.699Z,67.02
2023-02-02T09:42:21.990Z,67.59
2023-02-02T09:44:58.116Z,68.22
2023-02-02T09:47:35.655Z,67.50
2023-02-02T09:50:08.960Z,66.61
2023-02-02T09:52:46.544Z,65.06
2023-02-02T09:55:42.004Z,64.29
2023-02-02T09:58:50.032Z,65.35
2023-02-02T10:01:25.245Z,65.72
2023-02-02T10:04:19.745Z,65.76
2023-02-02T10:06:51.962Z,66.36
2023-02-02T10:09:42.058Z,66.02
2023-02-02T10:12:20.756Z,64.09
2023-02-02T10:14:54.486Z,63.15
2023-02-02T10:17:21.560Z,63.24
2023-02-02T10:19:54.449Z,63.34
2023-02-02T10:22:27.834Z,63.90
2023-02-02T10:24:55.324Z,64.53
2023-02-02T10:27:32.982Z,64.84
2023-02-02T10:30:20.854Z,66.02
2023-02-02T10:33:01.534Z,65.28
2023-02-02T10:35:42.571Z,63.64
2023-02-02T10:38:30.468Z,62.26
2023-02-02T10:41:27.409Z,62.79
2023-02-02T10:44:03.563Z,62.87
2023-02-02T10:46:44.882Z,63.92
2023-02-02T10:49:53.746Z,64.14
2023-02-02T10:53:02.660Z,64.77
2023-02-02T10:56:01.525Z,64.75
2023-02-02T10:58:58.885Z,62.33
2023-02-02T11:01:36.498Z,61.15
2023-02-02T11:04:33.461Z,60.89
2023-02-02T11:07:20.503Z,61.24
2023-02-02T11:09:47.651Z,61.32
2023-02-02T11:12:57.838Z,61.02
2023-02-02T11:15:29.723Z,62.33
2023-02-02T11:18:28.607Z,62.40
2023-02-02T11:20:55.934Z,63.16
2023-02-02T11:23:28.707Z,63.38
2023-02-02T11:26:14.568Z,62.79
2023-02-02T11:28:41.811Z,60.56
2023-02-02T11:31:09.262Z,60.28
2023-02-02T11:33:39.512Z,60.16
2023-02-02T11:36:20.485Z,60.90
2023-02-02T11:38:47.803Z,61.28
2023-02-02T11:41:15.575Z,62.15
2023-02-02T11:44:13.877Z,62.37
2023-02-02T11:46:41.234Z,63.35
2023-02-02T11:49:22.424Z,63.96
2023-02-02T11:51:58.318Z,63.34
2023-02-02T11:54:34.641Z,61.67
2023-02-02T11:57:07.351Z,61.06
2023-02-02T12:00:01.232Z,61.13
2023-02-02T12:02:34.002Z,61.53
2023-02-02T12:05:36.504Z,61.31
2023-02-02T12:08:14.408Z,61.44
2023-02-02T12:11:27.552Z,62.68
2023-02-02T12:14:34.648Z,62.62
2023-02-02T12:17:38.776Z,62.84
2023-02-02T12:20:37.165Z,60.50
2023-02-02T12:23:11.278Z,59.19
2023-02-02T12:26:02.544Z,58.14
2023-02-02T12:28:51.464Z,59.13
2023-02-02T12:31:57.502Z,59.63
2023-02-02T12:34:43.828Z,60.27
2023-02-02T12:37:36.409Z,61.27
2023-02-02T12:40:45.858Z,61.21
2023-02-02T12:43:28.025Z,61.62
2023-02-02T12:46:13.414Z,62.67
2023-02-02T12:48:58.303Z,63.35
2023-02-02T12:51:50.784Z,62.75
2023-02-02T12:54:46.754Z,60.47
2023-02-02T12:58:02.476Z,59.13
2023-02-02T13:00:39.525Z,60.18
2023-02-02T16:48:37.770Z,86.35
2023-02-02T16:51:16.344Z,81.98
2023-02-02T16:53:55.724Z,78.45
2023-02-02T16:56:38.399Z,75.75
2023-02-02T16:59:07.548Z,74.55
2023-02-02T17:01:39.771Z,74.98
2023-02-02T17:04:24.374Z,75.70
2023-02-02T17:06:53.317Z,74.76
2023-02-02T17:09:28.679Z,72.80
2023-02-02T17:12:32.655Z,72.47
2023-02-02T17:15:22.374Z,72.55
2023-02-02T17:17:50.257Z,73.12
2023-02-02T17:20:18.210Z,73.94
2023-02-02T17:22:59.464Z,73.45
2023-02-02T17:25:49.730Z,72.37
2023-02-02T17:28:20.400Z,72.02
2023-02-02T17:30:50.183Z,71.80
2023-02-02T17:33:18.574Z,72.32
2023-02-02T17:35:54.730Z,73.24
2023-02-02T17:38:23.721Z,72.77
2023-02-02T17:40:52.036Z,71.35
2023-02-02T17:43:22.233Z,71.27
2023-02-02T17:45:53.732Z,71.22
2023-02-02T17:48:22.257Z,71.48
2023-02-02T17:50:50.063Z,72.03
2023-02-02T17:53:19.283Z,72.04
2023-02-02T17:55:46.771Z,70.87
2023-02-02T17:58:17.168Z,70.58
2023-02-02T18:00:48.647Z,70.94
2023-02-02T18:03:19.885Z,71.45
2023-02-02T18:05:47.781Z,72.05
2023-02-02T18:08:24.177Z,72.49
2023-02-02T18:10:52.210Z,72.36
2023-02-02T18:13:27.434Z,71.10
2023-02-02T18:15:56.138Z,70.19
2023-02-02T18:18:23.754Z,70.85
2023-02-02T18:20:51.049Z,70.73
2023-02-02T18:23:19.114Z,71.70
2023-02-02T18:25:46.453Z,72.19
2023-02-02T18:28:17.801Z,72.18
2023-02-02T18:30:46.987Z,71.02
2023-02-02T18:33:20.840Z,70.40
2023-02-02T18:35:48.617Z,70.39
2023-02-02T18:38:40.329Z,70.66
2023-02-02T18:41:18.139Z,71.60
2023-02-02T18:43:45.808Z,72.49
2023-02-02T18:46:13.846Z,72.54
2023-02-02T18:48:50.755Z,71.03
2023-02-02T18:51:38.099Z,70.62
2023-02-02T18:54:08.527Z,70.68
2023-02-02T18:56:41.762Z,70.97
2023-02-02T18:59:09.552Z,71.06
2023-02-02T19:02:00.777Z,71.99
2023-02-02T19:04:30.434Z,71.98
2023-02-02T19:07:35.681Z,70.85
2023-02-02T19:10:10.609Z,69.77
2023-02-02T19:13:41.824Z,70.79
2023-02-02T19:16:30.162Z,71.37
2023-02-02T19:19:17.958Z,72.08
2023-02-02T19:21:45.350Z,71.45
2023-02-02T19:24:13.332Z,70.26
2023-02-02T19:26:50.313Z,70.14
2023-02-02T19:29:25.282Z,70.26
2023-02-02T19:31:54.028Z,70.97
2023-02-02T19:34:30.165Z,71.36
2023-02-02T19:37:43.581Z,72.08
2023-02-02T19:40:36.322Z,71.27
2023-02-02T19:43:34.617Z,69.83
2023-02-02T19:46:01.988Z,70.05
2023-02-02T19:48:36.535Z,70.42
2023-02-02T19:51:30.595Z,71.14
2023-02-02T19:53:59.491Z,71.64
2023-02-02T19:56:34.256Z,71.90
2023-02-02T19:59:02.641Z,71.81
2023-02-02T20:01:32.662Z,70.74
2023-02-02T20:03:59.871Z,70.48
2023-02-02T20:06:46.014Z,70.20
2023-02-02T20:09:22.937Z,70.78
2023-02-02T20:12:00.765Z,71.37
2023-02-02T20:14:33.350Z,72.05
2023-02-02T20:17:21.701Z,71.68
2023-02-02T20:19:51.824Z,70.49
2023-02-02T20:22:26.934Z,69.68
2023-02-02T20:24:58.201Z,69.76
2023-02-02T20:27:26.472Z,70.46
2023-02-02T20:29:54.994Z,71.12
2023-02-02T20:32:23.188Z,71.73
2023-02-02T20:34:58.739Z,71.47
2023-02-02T20:37:29.344Z,69.95
2023-02-02T20:39:58.916Z,70.10
2023-02-02T20:42:26.673Z,69.87
2023-02-02T20:45:17.381Z,70.68
2023-02-02T20:47:47.292Z,71.20
2023-02-02T20:50:22.079Z,72.06
2023-02-02T20:53:03.680Z,72.22
2023-02-02T20:55:33.349Z,71.40
2023-02-02T20:58:04.680Z,70.97
2023-02-02T21:00:56.096Z,70.79
2023-02-02T21:03:46.465Z,71.79
2023-02-02T21:06:21.742Z,72.26
2023-02-02T21:09:12.187Z,71.71
2023-02-02T21:11:44.219Z,70.16
2023-02-02T21:14:13.923Z,69.70
2023-02-02T21:16:57.398Z,70.31
2023-02-02T21:19:36.001Z,70.94
2023-02-02T21:22:08.199Z,71.94
2023-02-02T21:24:41.445Z,71.19
2023-02-02T21:27:24.307Z,70.00
2023-02-02T21:30:30.347Z,69.50
2023-02-02T21:33:18.458Z,70.27
2023-02-02T21:36:01.147Z,70.99
2023-02-02T21:38:32.009Z,71.71
2023-02-02T21:41:05.119Z,71.37
2023-02-02T21:43:56.342Z,69.87
2023-02-02T21:46:28.899Z,69.77
2023-02-02T21:48:58.843Z,70.20
2023-02-02T21:51:37.885Z,70.70
2023-02-02T21:54:33.580Z,71.92
2023-02-02T21:57:17.747Z,70.75
2023-02-02T22:00:26.091Z,68.85
2023-02-02T22:03:46.917Z,69.14
2023-02-02T22:06:31.181Z,70.06
2023-02-02T22:09:20.178Z,70.91
